Cincinnati, Ohio
Traffic Map
Current Weather Conditions
Cincinnati, Ohio
Overcast
Overcast
55°
Feels Like: 55°
Wind Chill: 55° Ceiling: 1500
Heat Index: 55° Visibility: 10mi
Dew Point: 52° Wind: 5mph
Humidity: 89% Direction: 70° (ENE)
Pressure: 29.91in Gusts: 0mph
Raw Report DataKLUK 030753Z AUTO 07004KT 10SM BKN015 OVC023 13/11 A2991 RMK AO2 SLP125 T01280111
Traffic Incident Summary
Active as of:
Severity:
Category:
InformationThere was an issue retrieving the traffic information for this location. Please try a different location or try again shortly.
Advertisements
Track Severe Weather on mobile